sensor_id;sensor_type;location;lat;lon;timestamp;P1;durP1;ratioP1;P2;durP2;ratioP2
50066;SDS011;35952;52.524;13.340;2022-09-21T00:01:16;8.07;;;6.13;;
50066;SDS011;35952;52.524;13.340;2022-09-21T00:03:46;9.70;;;6.20;;
50066;SDS011;35952;52.524;13.340;2022-09-21T00:06:17;6.97;;;6.10;;
50066;SDS011;35952;52.524;13.340;2022-09-21T00:08:44;6.20;;;5.60;;
50066;SDS011;35952;52.524;13.340;2022-09-21T00:11:11;7.53;;;6.83;;
50066;SDS011;35952;52.524;13.340;2022-09-21T00:13:38;5.80;;;5.40;;
50066;SDS011;35952;52.524;13.340;2022-09-21T00:16:05;7.17;;;6.57;;
50066;SDS011;35952;52.524;13.340;2022-09-21T00:18:31;6.00;;;5.50;;
50066;SDS011;35952;52.524;13.340;2022-09-21T00:20:57;7.70;;;6.97;;
50066;SDS011;35952;52.524;13.340;2022-09-21T00:23:23;6.77;;;6.17;;
50066;SDS011;35952;52.524;13.340;2022-09-21T00:25:48;13.10;;;6.60;;
50066;SDS011;35952;52.524;13.340;2022-09-21T00:28:14;8.23;;;6.17;;
50066;SDS011;35952;52.524;13.340;2022-09-21T00:30:40;6.50;;;6.00;;
50066;SDS011;35952;52.524;13.340;2022-09-21T00:33:05;6.83;;;5.87;;
50066;SDS011;35952;52.524;13.340;2022-09-21T00:35:31;7.23;;;5.57;;
50066;SDS011;35952;52.524;13.340;2022-09-21T00:38:01;6.90;;;6.27;;
50066;SDS011;35952;52.524;13.340;2022-09-21T00:40:27;7.00;;;6.40;;
50066;SDS011;35952;52.524;13.340;2022-09-21T00:42:53;7.30;;;5.30;;
50066;SDS011;35952;52.524;13.340;2022-09-21T00:45:34;6.23;;;5.73;;
50066;SDS011;35952;52.524;13.340;2022-09-21T00:48:00;5.80;;;4.97;;
50066;SDS011;35952;52.524;13.340;2022-09-21T00:50:26;7.03;;;6.50;;
50066;SDS011;35952;52.524;13.340;2022-09-21T00:52:52;7.30;;;5.40;;
50066;SDS011;35952;52.524;13.340;2022-09-21T00:55:21;7.10;;;5.17;;
50066;SDS011;35952;52.524;13.340;2022-09-21T00:57:55;6.43;;;5.87;;
50066;SDS011;35952;52.524;13.340;2022-09-21T01:00:25;5.53;;;5.10;;
50066;SDS011;35952;52.524;13.340;2022-09-21T01:02:50;5.53;;;5.13;;
50066;SDS011;35952;52.524;13.340;2022-09-21T01:05:16;5.47;;;4.97;;
50066;SDS011;35952;52.524;13.340;2022-09-21T01:07:44;6.60;;;6.00;;
50066;SDS011;35952;52.524;13.340;2022-09-21T01:10:13;5.50;;;5.10;;
50066;SDS011;35952;52.524;13.340;2022-09-21T01:27:07;5.10;;;4.70;;
50066;SDS011;35952;52.524;13.340;2022-09-21T01:32:08;7.10;;;5.33;;
50066;SDS011;35952;52.524;13.340;2022-09-21T01:35:38;5.33;;;4.93;;
50066;SDS011;35952;52.524;13.340;2022-09-21T01:37:47;5.27;;;4.63;;
50066;SDS011;35952;52.524;13.340;2022-09-21T01:40:21;5.53;;;5.03;;
50066;SDS011;35952;52.524;13.340;2022-09-21T01:42:53;5.40;;;4.90;;
50066;SDS011;35952;52.524;13.340;2022-09-21T01:45:27;3.90;;;3.50;;
50066;SDS011;35952;52.524;13.340;2022-09-21T01:47:59;5.50;;;5.03;;
50066;SDS011;35952;52.524;13.340;2022-09-21T01:50:30;8.50;;;4.53;;
50066;SDS011;35952;52.524;13.340;2022-09-21T01:53:12;7.80;;;5.93;;
50066;SDS011;35952;52.524;13.340;2022-09-21T01:55:41;5.30;;;4.90;;
50066;SDS011;35952;52.524;13.340;2022-09-21T01:58:15;4.70;;;4.40;;
50066;SDS011;35952;52.524;13.340;2022-09-21T02:00:57;4.60;;;4.27;;
50066;SDS011;35952;52.524;13.340;2022-09-21T02:03:27;4.77;;;4.47;;
50066;SDS011;35952;52.524;13.340;2022-09-21T02:05:57;4.60;;;4.30;;
50066;SDS011;35952;52.524;13.340;2022-09-21T02:08:23;4.53;;;4.13;;
50066;SDS011;35952;52.524;13.340;2022-09-21T02:10:51;5.60;;;5.10;;
50066;SDS011;35952;52.524;13.340;2022-09-21T02:13:18;6.07;;;4.33;;
50066;SDS011;35952;52.524;13.340;2022-09-21T02:18:41;5.00;;;4.60;;
50066;SDS011;35952;52.524;13.340;2022-09-21T02:22:02;9.50;;;4.80;;
50066;SDS011;35952;52.524;13.340;2022-09-21T02:24:34;5.00;;;4.50;;
50066;SDS011;35952;52.524;13.340;2022-09-21T02:29:59;6.90;;;4.90;;
50066;SDS011;35952;52.524;13.340;2022-09-21T02:33:04;6.40;;;4.17;;
50066;SDS011;35952;52.524;13.340;2022-09-21T02:41:03;4.67;;;3.97;;
50066;SDS011;35952;52.524;13.340;2022-09-21T02:44:05;4.77;;;3.83;;
50066;SDS011;35952;52.524;13.340;2022-09-21T02:46:37;6.43;;;4.20;;
50066;SDS011;35952;52.524;13.340;2022-09-21T02:49:12;4.77;;;4.37;;
50066;SDS011;35952;52.524;13.340;2022-09-21T02:51:45;5.17;;;4.77;;
50066;SDS011;35952;52.524;13.340;2022-09-21T02:54:13;5.43;;;4.93;;
50066;SDS011;35952;52.524;13.340;2022-09-21T02:56:42;5.67;;;5.10;;
50066;SDS011;35952;52.524;13.340;2022-09-21T02:59:10;5.57;;;4.77;;
50066;SDS011;35952;52.524;13.340;2022-09-21T03:01:37;6.10;;;4.93;;
50066;SDS011;35952;52.524;13.340;2022-09-21T03:04:04;4.90;;;4.50;;
50066;SDS011;35952;52.524;13.340;2022-09-21T03:06:29;5.67;;;4.87;;
50066;SDS011;35952;52.524;13.340;2022-09-21T03:08:55;4.90;;;4.60;;
50066;SDS011;35952;52.524;13.340;2022-09-21T03:11:22;4.10;;;3.73;;
50066;SDS011;35952;52.524;13.340;2022-09-21T03:13:47;5.70;;;5.13;;
50066;SDS011;35952;52.524;13.340;2022-09-21T03:16:13;4.90;;;4.40;;
50066;SDS011;35952;52.524;13.340;2022-09-21T03:18:38;6.60;;;4.80;;
50066;SDS011;35952;52.524;13.340;2022-09-21T03:21:07;4.40;;;4.10;;
50066;SDS011;35952;52.524;13.340;2022-09-21T03:23:33;5.13;;;4.73;;
50066;SDS011;35952;52.524;13.340;2022-09-21T03:25:58;6.43;;;4.77;;
50066;SDS011;35952;52.524;13.340;2022-09-21T03:28:24;5.83;;;5.00;;
50066;SDS011;35952;52.524;13.340;2022-09-21T03:30:50;6.03;;;5.20;;
50066;SDS011;35952;52.524;13.340;2022-09-21T03:33:17;4.97;;;4.57;;
50066;SDS011;35952;52.524;13.340;2022-09-21T03:35:43;5.37;;;4.97;;
50066;SDS011;35952;52.524;13.340;2022-09-21T03:38:09;4.87;;;4.33;;
50066;SDS011;35952;52.524;13.340;2022-09-21T03:40:35;7.03;;;6.43;;
50066;SDS011;35952;52.524;13.340;2022-09-21T03:43:00;5.37;;;4.70;;
50066;SDS011;35952;52.524;13.340;2022-09-21T03:45:26;5.33;;;4.83;;
50066;SDS011;35952;52.524;13.340;2022-09-21T03:47:55;6.23;;;5.60;;
50066;SDS011;35952;52.524;13.340;2022-09-21T03:50:23;5.33;;;4.93;;
50066;SDS011;35952;52.524;13.340;2022-09-21T03:52:49;5.83;;;5.33;;
50066;SDS011;35952;52.524;13.340;2022-09-21T03:55:15;5.33;;;4.83;;
50066;SDS011;35952;52.524;13.340;2022-09-21T03:57:41;5.13;;;4.70;;
50066;SDS011;35952;52.524;13.340;2022-09-21T04:00:07;4.90;;;4.43;;
50066;SDS011;35952;52.524;13.340;2022-09-21T04:02:34;5.17;;;4.67;;
50066;SDS011;35952;52.524;13.340;2022-09-21T04:05:01;5.97;;;5.17;;
50066;SDS011;35952;52.524;13.340;2022-09-21T04:07:29;5.50;;;5.00;;
50066;SDS011;35952;52.524;13.340;2022-09-21T04:09:58;5.00;;;4.50;;
50066;SDS011;35952;52.524;13.340;2022-09-21T04:12:24;4.80;;;4.30;;
50066;SDS011;35952;52.524;13.340;2022-09-21T04:14:50;5.20;;;4.70;;
50066;SDS011;35952;52.524;13.340;2022-09-21T04:17:15;5.27;;;4.87;;
50066;SDS011;35952;52.524;13.340;2022-09-21T04:19:41;5.03;;;4.40;;
50066;SDS011;35952;52.524;13.340;2022-09-21T04:22:07;8.83;;;5.03;;
50066;SDS011;35952;52.524;13.340;2022-09-21T04:24:33;5.20;;;4.47;;
50066;SDS011;35952;52.524;13.340;2022-09-21T04:26:58;5.10;;;4.70;;
50066;SDS011;35952;52.524;13.340;2022-09-21T04:29:23;5.60;;;4.57;;
50066;SDS011;35952;52.524;13.340;2022-09-21T04:31:49;5.60;;;5.07;;
50066;SDS011;35952;52.524;13.340;2022-09-21T04:34:14;23.57;;;20.80;;
50066;SDS011;35952;52.524;13.340;2022-09-21T04:36:40;29.40;;;18.83;;
50066;SDS011;35952;52.524;13.340;2022-09-21T04:39:05;5.63;;;5.13;;
50066;SDS011;35952;52.524;13.340;2022-09-21T04:41:31;5.40;;;5.00;;
50066;SDS011;35952;52.524;13.340;2022-09-21T04:43:57;5.57;;;5.07;;
50066;SDS011;35952;52.524;13.340;2022-09-21T04:46:23;6.17;;;5.03;;
50066;SDS011;35952;52.524;13.340;2022-09-21T04:48:48;6.57;;;5.40;;
50066;SDS011;35952;52.524;13.340;2022-09-21T04:51:14;6.83;;;4.87;;
50066;SDS011;35952;52.524;13.340;2022-09-21T04:53:41;5.20;;;4.70;;
50066;SDS011;35952;52.524;13.340;2022-09-21T04:56:08;7.20;;;5.67;;
50066;SDS011;35952;52.524;13.340;2022-09-21T04:58:36;5.60;;;5.10;;
50066;SDS011;35952;52.524;13.340;2022-09-21T05:01:03;6.00;;;5.30;;
50066;SDS011;35952;52.524;13.340;2022-09-21T05:03:30;5.73;;;5.00;;
50066;SDS011;35952;52.524;13.340;2022-09-21T05:05:56;5.47;;;4.80;;
50066;SDS011;35952;52.524;13.340;2022-09-21T05:08:22;7.63;;;5.50;;
50066;SDS011;35952;52.524;13.340;2022-09-21T05:11:09;5.90;;;5.10;;
50066;SDS011;35952;52.524;13.340;2022-09-21T05:13:37;5.00;;;4.50;;
50066;SDS011;35952;52.524;13.340;2022-09-21T05:16:03;4.80;;;4.40;;
50066;SDS011;35952;52.524;13.340;2022-09-21T05:18:29;5.40;;;4.90;;
50066;SDS011;35952;52.524;13.340;2022-09-21T05:20:55;7.03;;;5.10;;
50066;SDS011;35952;52.524;13.340;2022-09-21T05:23:22;6.73;;;5.43;;
50066;SDS011;35952;52.524;13.340;2022-09-21T05:25:48;6.00;;;5.30;;
50066;SDS011;35952;52.524;13.340;2022-09-21T05:28:15;6.80;;;6.17;;
50066;SDS011;35952;52.524;13.340;2022-09-21T05:30:42;7.00;;;6.30;;
50066;SDS011;35952;52.524;13.340;2022-09-21T05:33:11;7.03;;;6.43;;
50066;SDS011;35952;52.524;13.340;2022-09-21T05:35:44;6.77;;;6.10;;
50066;SDS011;35952;52.524;13.340;2022-09-21T05:38:25;6.50;;;5.90;;
50066;SDS011;35952;52.524;13.340;2022-09-21T05:40:51;9.43;;;6.27;;
50066;SDS011;35952;52.524;13.340;2022-09-21T05:43:18;7.10;;;6.40;;
50066;SDS011;35952;52.524;13.340;2022-09-21T05:45:44;6.90;;;6.20;;
50066;SDS011;35952;52.524;13.340;2022-09-21T05:48:20;7.20;;;6.50;;
50066;SDS011;35952;52.524;13.340;2022-09-21T06:04:32;13.53;;;6.33;;
50066;SDS011;35952;52.524;13.340;2022-09-21T06:06:57;8.40;;;6.17;;
50066;SDS011;35952;52.524;13.340;2022-09-21T06:09:23;7.50;;;6.70;;
50066;SDS011;35952;52.524;13.340;2022-09-21T06:11:50;7.87;;;6.43;;
50066;SDS011;35952;52.524;13.340;2022-09-21T06:14:16;7.33;;;6.73;;
50066;SDS011;35952;52.524;13.340;2022-09-21T06:16:48;7.53;;;6.60;;
50066;SDS011;35952;52.524;13.340;2022-09-21T06:19:14;8.53;;;7.57;;
50066;SDS011;35952;52.524;13.340;2022-09-21T06:21:39;7.90;;;6.97;;
50066;SDS011;35952;52.524;13.340;2022-09-21T06:24:05;9.80;;;7.90;;
50066;SDS011;35952;52.524;13.340;2022-09-21T06:26:30;13.90;;;5.77;;
50066;SDS011;35952;52.524;13.340;2022-09-21T06:28:56;6.37;;;5.83;;
50066;SDS011;35952;52.524;13.340;2022-09-21T06:31:22;7.23;;;6.63;;
50066;SDS011;35952;52.524;13.340;2022-09-21T06:33:50;6.67;;;5.63;;
50066;SDS011;35952;52.524;13.340;2022-09-21T06:36:15;6.43;;;5.83;;
50066;SDS011;35952;52.524;13.340;2022-09-21T06:38:41;10.97;;;6.07;;
50066;SDS011;35952;52.524;13.340;2022-09-21T06:41:07;6.57;;;6.00;;
50066;SDS011;35952;52.524;13.340;2022-09-21T06:43:32;7.30;;;6.57;;
50066;SDS011;35952;52.524;13.340;2022-09-21T06:45:59;7.10;;;6.43;;
50066;SDS011;35952;52.524;13.340;2022-09-21T06:48:25;8.63;;;6.03;;
50066;SDS011;35952;52.524;13.340;2022-09-21T06:50:56;9.97;;;6.50;;
50066;SDS011;35952;52.524;13.340;2022-09-21T06:53:26;8.40;;;7.70;;
50066;SDS011;35952;52.524;13.340;2022-09-21T06:55:52;8.17;;;7.33;;
50066;SDS011;35952;52.524;13.340;2022-09-21T06:58:18;10.13;;;6.93;;
50066;SDS011;35952;52.524;13.340;2022-09-21T07:00:44;8.50;;;7.47;;
50066;SDS011;35952;52.524;13.340;2022-09-21T07:03:10;7.33;;;6.63;;
50066;SDS011;35952;52.524;13.340;2022-09-21T07:05:37;5.83;;;5.33;;
50066;SDS011;35952;52.524;13.340;2022-09-21T07:08:03;6.10;;;5.53;;
50066;SDS011;35952;52.524;13.340;2022-09-21T07:10:29;12.00;;;5.80;;
50066;SDS011;35952;52.524;13.340;2022-09-21T07:12:55;7.07;;;6.47;;
50066;SDS011;35952;52.524;13.340;2022-09-21T07:15:25;5.50;;;5.00;;
50066;SDS011;35952;52.524;13.340;2022-09-21T07:17:53;7.60;;;6.50;;
50066;SDS011;35952;52.524;13.340;2022-09-21T07:20:19;7.07;;;6.23;;
50066;SDS011;35952;52.524;13.340;2022-09-21T07:22:44;6.10;;;5.50;;
50066;SDS011;35952;52.524;13.340;2022-09-21T07:25:10;6.83;;;5.80;;
50066;SDS011;35952;52.524;13.340;2022-09-21T07:27:35;7.23;;;6.27;;
50066;SDS011;35952;52.524;13.340;2022-09-21T07:30:01;5.47;;;4.97;;
50066;SDS011;35952;52.524;13.340;2022-09-21T07:32:27;6.40;;;5.80;;
50066;SDS011;35952;52.524;13.340;2022-09-21T07:34:54;6.17;;;5.57;;
50066;SDS011;35952;52.524;13.340;2022-09-21T07:37:21;5.47;;;4.97;;
50066;SDS011;35952;52.524;13.340;2022-09-21T07:39:48;5.57;;;5.00;;
50066;SDS011;35952;52.524;13.340;2022-09-21T07:42:14;5.13;;;4.63;;
50066;SDS011;35952;52.524;13.340;2022-09-21T07:44:40;5.90;;;4.77;;
50066;SDS011;35952;52.524;13.340;2022-09-21T07:47:05;5.93;;;5.10;;
50066;SDS011;35952;52.524;13.340;2022-09-21T07:49:32;6.03;;;4.80;;
50066;SDS011;35952;52.524;13.340;2022-09-21T07:51:57;5.90;;;5.30;;
50066;SDS011;35952;52.524;13.340;2022-09-21T07:54:23;5.47;;;4.67;;
50066;SDS011;35952;52.524;13.340;2022-09-21T07:56:48;5.57;;;4.80;;
50066;SDS011;35952;52.524;13.340;2022-09-21T07:59:32;7.73;;;6.90;;
50066;SDS011;35952;52.524;13.340;2022-09-21T08:01:58;8.93;;;5.10;;
50066;SDS011;35952;52.524;13.340;2022-09-21T08:04:24;7.00;;;5.63;;
50066;SDS011;35952;52.524;13.340;2022-09-21T08:06:49;8.73;;;6.47;;
50066;SDS011;35952;52.524;13.340;2022-09-21T08:09:15;6.27;;;5.63;;
50066;SDS011;35952;52.524;13.340;2022-09-21T08:11:40;8.50;;;6.03;;
50066;SDS011;35952;52.524;13.340;2022-09-21T08:14:09;6.80;;;5.50;;
50066;SDS011;35952;52.524;13.340;2022-09-21T08:16:36;7.47;;;6.10;;
50066;SDS011;35952;52.524;13.340;2022-09-21T08:19:03;8.73;;;5.30;;
50066;SDS011;35952;52.524;13.340;2022-09-21T08:21:29;6.30;;;5.60;;
50066;SDS011;35952;52.524;13.340;2022-09-21T08:23:55;9.97;;;7.23;;
50066;SDS011;35952;52.524;13.340;2022-09-21T08:26:21;10.60;;;7.77;;
50066;SDS011;35952;52.524;13.340;2022-09-21T08:28:49;9.90;;;7.80;;
50066;SDS011;35952;52.524;13.340;2022-09-21T08:31:17;11.30;;;8.03;;
50066;SDS011;35952;52.524;13.340;2022-09-21T08:33:44;9.03;;;7.90;;
50066;SDS011;35952;52.524;13.340;2022-09-21T08:36:10;7.30;;;6.43;;
50066;SDS011;35952;52.524;13.340;2022-09-21T08:38:36;6.83;;;6.10;;
50066;SDS011;35952;52.524;13.340;2022-09-21T08:43:59;5.40;;;4.90;;
50066;SDS011;35952;52.524;13.340;2022-09-21T08:46:31;4.97;;;4.57;;
50066;SDS011;35952;52.524;13.340;2022-09-21T08:49:00;4.57;;;4.27;;
50066;SDS011;35952;52.524;13.340;2022-09-21T08:51:31;5.50;;;4.60;;
50066;SDS011;35952;52.524;13.340;2022-09-21T08:54:18;6.43;;;5.57;;
50066;SDS011;35952;52.524;13.340;2022-09-21T08:56:51;7.90;;;5.90;;
50066;SDS011;35952;52.524;13.340;2022-09-21T08:59:17;9.70;;;5.77;;
50066;SDS011;35952;52.524;13.340;2022-09-21T09:04:27;6.07;;;5.23;;
50066;SDS011;35952;52.524;13.340;2022-09-21T09:07:14;6.07;;;5.50;;
50066;SDS011;35952;52.524;13.340;2022-09-21T09:10:11;6.73;;;6.07;;
50066;SDS011;35952;52.524;13.340;2022-09-21T09:18:48;6.33;;;5.23;;
50066;SDS011;35952;52.524;13.340;2022-09-21T09:21:28;5.23;;;4.70;;
50066;SDS011;35952;52.524;13.340;2022-09-21T09:24:03;8.23;;;5.60;;
50066;SDS011;35952;52.524;13.340;2022-09-21T09:26:46;5.97;;;5.23;;
50066;SDS011;35952;52.524;13.340;2022-09-21T09:31:51;6.60;;;5.57;;
50066;SDS011;35952;52.524;13.340;2022-09-21T09:34:32;5.80;;;5.30;;
50066;SDS011;35952;52.524;13.340;2022-09-21T09:37:10;6.20;;;5.70;;
50066;SDS011;35952;52.524;13.340;2022-09-21T09:39:37;6.17;;;5.67;;
50066;SDS011;35952;52.524;13.340;2022-09-21T09:42:23;9.40;;;5.67;;
50066;SDS011;35952;52.524;13.340;2022-09-21T09:45:02;10.50;;;5.50;;
50066;SDS011;35952;52.524;13.340;2022-09-21T09:48:04;4.73;;;4.17;;
50066;SDS011;35952;52.524;13.340;2022-09-21T09:50:43;5.50;;;3.70;;
50066;SDS011;35952;52.524;13.340;2022-09-21T09:53:10;4.50;;;3.77;;
50066;SDS011;35952;52.524;13.340;2022-09-21T09:55:42;4.90;;;4.10;;
50066;SDS011;35952;52.524;13.340;2022-09-21T09:58:19;4.90;;;4.37;;
50066;SDS011;35952;52.524;13.340;2022-09-21T10:00:46;4.77;;;4.27;;
50066;SDS011;35952;52.524;13.340;2022-09-21T10:03:19;3.93;;;2.67;;
50066;SDS011;35952;52.524;13.340;2022-09-21T10:05:46;4.77;;;3.50;;
50066;SDS011;35952;52.524;13.340;2022-09-21T10:11:06;3.50;;;2.70;;
50066;SDS011;35952;52.524;13.340;2022-09-21T10:13:32;2.70;;;2.50;;
50066;SDS011;35952;52.524;13.340;2022-09-21T10:16:03;3.83;;;2.57;;
50066;SDS011;35952;52.524;13.340;2022-09-21T10:18:44;4.80;;;4.30;;
50066;SDS011;35952;52.524;13.340;2022-09-21T10:23:55;5.77;;;2.00;;
50066;SDS011;35952;52.524;13.340;2022-09-21T10:26:23;2.10;;;1.60;;
50066;SDS011;35952;52.524;13.340;2022-09-21T10:28:58;1.70;;;1.60;;
50066;SDS011;35952;52.524;13.340;2022-09-21T10:31:26;4.30;;;1.80;;
50066;SDS011;35952;52.524;13.340;2022-09-21T10:41:48;1.33;;;1.20;;
50066;SDS011;35952;52.524;13.340;2022-09-21T10:44:16;1.80;;;1.70;;
50066;SDS011;35952;52.524;13.340;2022-09-21T10:46:44;1.67;;;1.57;;
50066;SDS011;35952;52.524;13.340;2022-09-21T10:49:14;2.00;;;1.80;;
50066;SDS011;35952;52.524;13.340;2022-09-21T10:51:46;2.10;;;1.90;;
50066;SDS011;35952;52.524;13.340;2022-09-21T10:54:18;2.70;;;1.53;;
50066;SDS011;35952;52.524;13.340;2022-09-21T10:56:52;2.47;;;1.30;;
50066;SDS011;35952;52.524;13.340;2022-09-21T10:59:22;2.80;;;1.53;;
50066;SDS011;35952;52.524;13.340;2022-09-21T11:01:50;5.43;;;1.70;;
50066;SDS011;35952;52.524;13.340;2022-09-21T11:04:22;1.50;;;1.40;;
50066;SDS011;35952;52.524;13.340;2022-09-21T11:06:56;1.97;;;1.50;;
50066;SDS011;35952;52.524;13.340;2022-09-21T11:09:31;2.50;;;1.70;;
50066;SDS011;35952;52.524;13.340;2022-09-21T11:12:20;2.27;;;1.73;;
50066;SDS011;35952;52.524;13.340;2022-09-21T11:15:02;1.50;;;1.40;;
50066;SDS011;35952;52.524;13.340;2022-09-21T11:17:44;2.17;;;1.97;;
50066;SDS011;35952;52.524;13.340;2022-09-21T11:20:29;1.67;;;1.57;;
50066;SDS011;35952;52.524;13.340;2022-09-21T11:23:21;1.67;;;1.40;;
50066;SDS011;35952;52.524;13.340;2022-09-21T11:26:03;2.40;;;1.83;;
50066;SDS011;35952;52.524;13.340;2022-09-21T11:28:42;2.83;;;1.73;;
50066;SDS011;35952;52.524;13.340;2022-09-21T11:31:25;2.80;;;1.53;;
50066;SDS011;35952;52.524;13.340;2022-09-21T11:40:01;2.03;;;1.90;;
50066;SDS011;35952;52.524;13.340;2022-09-21T11:42:56;1.60;;;1.50;;
50066;SDS011;35952;52.524;13.340;2022-09-21T11:50:57;2.33;;;2.13;;
50066;SDS011;35952;52.524;13.340;2022-09-21T11:53:57;1.90;;;1.80;;
50066;SDS011;35952;52.524;13.340;2022-09-21T12:05:21;1.47;;;1.37;;
50066;SDS011;35952;52.524;13.340;2022-09-21T12:13:32;1.37;;;1.27;;
50066;SDS011;35952;52.524;13.340;2022-09-21T12:16:39;1.40;;;1.30;;
50066;SDS011;35952;52.524;13.340;2022-09-21T12:22:02;2.63;;;1.87;;
50066;SDS011;35952;52.524;13.340;2022-09-21T12:24:41;3.10;;;1.40;;
50066;SDS011;35952;52.524;13.340;2022-09-21T12:27:12;2.43;;;2.10;;
50066;SDS011;35952;52.524;13.340;2022-09-21T12:30:11;2.60;;;1.93;;
50066;SDS011;35952;52.524;13.340;2022-09-21T12:35:41;3.20;;;2.30;;
50066;SDS011;35952;52.524;13.340;2022-09-21T12:46:28;5.70;;;2.07;;
50066;SDS011;35952;52.524;13.340;2022-09-21T12:49:08;1.70;;;1.60;;
50066;SDS011;35952;52.524;13.340;2022-09-21T12:51:47;1.70;;;1.60;;
50066;SDS011;35952;52.524;13.340;2022-09-21T13:02:33;1.43;;;1.33;;
50066;SDS011;35952;52.524;13.340;2022-09-21T13:05:13;3.90;;;1.70;;
50066;SDS011;35952;52.524;13.340;2022-09-21T13:07:56;1.70;;;1.60;;
50066;SDS011;35952;52.524;13.340;2022-09-21T13:10:37;2.70;;;2.00;;
50066;SDS011;35952;52.524;13.340;2022-09-21T13:13:05;1.70;;;1.60;;
50066;SDS011;35952;52.524;13.340;2022-09-21T13:15:42;4.10;;;3.70;;
50066;SDS011;35952;52.524;13.340;2022-09-21T13:18:20;2.37;;;2.17;;
50066;SDS011;35952;52.524;13.340;2022-09-21T13:20:48;2.07;;;1.97;;
50066;SDS011;35952;52.524;13.340;2022-09-21T13:23:17;2.23;;;1.97;;
50066;SDS011;35952;52.524;13.340;2022-09-21T13:26:01;1.60;;;1.50;;
50066;SDS011;35952;52.524;13.340;2022-09-21T13:36:33;2.47;;;1.70;;
50066;SDS011;35952;52.524;13.340;2022-09-21T13:39:16;2.00;;;1.80;;
50066;SDS011;35952;52.524;13.340;2022-09-21T13:41:42;1.77;;;1.50;;
50066;SDS011;35952;52.524;13.340;2022-09-21T13:44:20;4.87;;;1.80;;
50066;SDS011;35952;52.524;13.340;2022-09-21T13:46:58;2.17;;;1.97;;
50066;SDS011;35952;52.524;13.340;2022-09-21T13:49:29;1.67;;;1.57;;
50066;SDS011;35952;52.524;13.340;2022-09-21T13:52:05;3.20;;;1.87;;
50066;SDS011;35952;52.524;13.340;2022-09-21T14:02:36;2.00;;;1.90;;
50066;SDS011;35952;52.524;13.340;2022-09-21T14:10:55;1.70;;;1.60;;
50066;SDS011;35952;52.524;13.340;2022-09-21T14:13:36;1.73;;;1.63;;
50066;SDS011;35952;52.524;13.340;2022-09-21T14:18:50;1.70;;;1.60;;
50066;SDS011;35952;52.524;13.340;2022-09-21T14:21:16;2.33;;;1.87;;
50066;SDS011;35952;52.524;13.340;2022-09-21T14:26:31;1.80;;;1.70;;
50066;SDS011;35952;52.524;13.340;2022-09-21T14:31:57;1.40;;;1.30;;
50066;SDS011;35952;52.524;13.340;2022-09-21T14:34:26;1.60;;;1.50;;
50066;SDS011;35952;52.524;13.340;2022-09-21T14:37:01;2.40;;;1.60;;
50066;SDS011;35952;52.524;13.340;2022-09-21T14:39:32;1.97;;;1.80;;
50066;SDS011;35952;52.524;13.340;2022-09-21T14:42:17;3.93;;;2.70;;
50066;SDS011;35952;52.524;13.340;2022-09-21T14:44:47;2.40;;;2.00;;
50066;SDS011;35952;52.524;13.340;2022-09-21T14:47:35;2.50;;;1.90;;
50066;SDS011;35952;52.524;13.340;2022-09-21T14:55:52;3.13;;;2.10;;
50066;SDS011;35952;52.524;13.340;2022-09-21T15:04:10;1.87;;;1.77;;
50066;SDS011;35952;52.524;13.340;2022-09-21T15:07:09;1.60;;;1.50;;
50066;SDS011;35952;52.524;13.340;2022-09-21T15:10:15;1.50;;;1.40;;
50066;SDS011;35952;52.524;13.340;2022-09-21T15:16:14;6.83;;;5.70;;
50066;SDS011;35952;52.524;13.340;2022-09-21T15:18:50;2.50;;;2.10;;
50066;SDS011;35952;52.524;13.340;2022-09-21T15:21:29;1.47;;;1.37;;
50066;SDS011;35952;52.524;13.340;2022-09-21T15:23:56;2.00;;;1.90;;
50066;SDS011;35952;52.524;13.340;2022-09-21T15:26:25;6.63;;;3.60;;
50066;SDS011;35952;52.524;13.340;2022-09-21T15:28:59;1.43;;;1.33;;
50066;SDS011;35952;52.524;13.340;2022-09-21T15:31:31;7.90;;;6.67;;
50066;SDS011;35952;52.524;13.340;2022-09-21T15:33:58;4.57;;;3.93;;
50066;SDS011;35952;52.524;13.340;2022-09-21T15:36:26;4.27;;;3.87;;
50066;SDS011;35952;52.524;13.340;2022-09-21T15:38:53;1.90;;;1.80;;
50066;SDS011;35952;52.524;13.340;2022-09-21T15:44:12;1.70;;;1.60;;
50066;SDS011;35952;52.524;13.340;2022-09-21T15:46:44;1.20;;;1.10;;
50066;SDS011;35952;52.524;13.340;2022-09-21T15:49:14;1.70;;;1.60;;
50066;SDS011;35952;52.524;13.340;2022-09-21T15:51:45;2.10;;;1.90;;
50066;SDS011;35952;52.524;13.340;2022-09-21T15:54:17;2.03;;;1.90;;
50066;SDS011;35952;52.524;13.340;2022-09-21T15:56:58;2.40;;;1.80;;
50066;SDS011;35952;52.524;13.340;2022-09-21T15:59:24;1.97;;;1.87;;
50066;SDS011;35952;52.524;13.340;2022-09-21T16:01:52;4.27;;;2.60;;
50066;SDS011;35952;52.524;13.340;2022-09-21T16:04:21;8.17;;;4.33;;
50066;SDS011;35952;52.524;13.340;2022-09-21T16:09:35;2.93;;;2.17;;
50066;SDS011;35952;52.524;13.340;2022-09-21T16:12:02;2.13;;;1.93;;
50066;SDS011;35952;52.524;13.340;2022-09-21T16:14:49;2.40;;;2.20;;
50066;SDS011;35952;52.524;13.340;2022-09-21T16:17:25;2.20;;;1.97;;
50066;SDS011;35952;52.524;13.340;2022-09-21T16:22:19;2.17;;;1.70;;
50066;SDS011;35952;52.524;13.340;2022-09-21T16:25:01;2.70;;;2.20;;
50066;SDS011;35952;52.524;13.340;2022-09-21T16:27:37;3.60;;;2.30;;
50066;SDS011;35952;52.524;13.340;2022-09-21T16:30:29;2.60;;;2.40;;
50066;SDS011;35952;52.524;13.340;2022-09-21T16:33:31;2.77;;;2.13;;
50066;SDS011;35952;52.524;13.340;2022-09-21T16:36:50;1.93;;;1.77;;
50066;SDS011;35952;52.524;13.340;2022-09-21T16:38:53;2.57;;;2.27;;
50066;SDS011;35952;52.524;13.340;2022-09-21T16:41:19;3.20;;;2.87;;
50066;SDS011;35952;52.524;13.340;2022-09-21T16:44:12;3.70;;;3.13;;
50066;SDS011;35952;52.524;13.340;2022-09-21T16:46:44;3.37;;;3.07;;
50066;SDS011;35952;52.524;13.340;2022-09-21T16:49:13;3.03;;;2.83;;
50066;SDS011;35952;52.524;13.340;2022-09-21T16:51:42;2.90;;;2.70;;
50066;SDS011;35952;52.524;13.340;2022-09-21T16:54:10;4.30;;;2.70;;
50066;SDS011;35952;52.524;13.340;2022-09-21T16:56:35;11.00;;;3.50;;
50066;SDS011;35952;52.524;13.340;2022-09-21T16:59:04;3.90;;;3.50;;
50066;SDS011;35952;52.524;13.340;2022-09-21T17:01:36;10.53;;;9.13;;
50066;SDS011;35952;52.524;13.340;2022-09-21T17:04:01;8.20;;;6.87;;
50066;SDS011;35952;52.524;13.340;2022-09-21T17:06:27;7.10;;;6.40;;
50066;SDS011;35952;52.524;13.340;2022-09-21T17:08:52;5.50;;;4.90;;
50066;SDS011;35952;52.524;13.340;2022-09-21T17:11:18;5.53;;;4.63;;
50066;SDS011;35952;52.524;13.340;2022-09-21T17:13:47;5.50;;;4.50;;
50066;SDS011;35952;52.524;13.340;2022-09-21T17:16:17;6.73;;;3.83;;
50066;SDS011;35952;52.524;13.340;2022-09-21T17:18:44;3.77;;;3.30;;
50066;SDS011;35952;52.524;13.340;2022-09-21T17:21:10;7.47;;;6.33;;
50066;SDS011;35952;52.524;13.340;2022-09-21T17:23:36;9.30;;;6.87;;
50066;SDS011;35952;52.524;13.340;2022-09-21T17:26:02;6.10;;;5.20;;
50066;SDS011;35952;52.524;13.340;2022-09-21T17:28:35;4.33;;;3.93;;
50066;SDS011;35952;52.524;13.340;2022-09-21T17:31:02;4.90;;;3.40;;
50066;SDS011;35952;52.524;13.340;2022-09-21T17:33:28;5.33;;;3.20;;
50066;SDS011;35952;52.524;13.340;2022-09-21T17:35:54;3.73;;;3.03;;
50066;SDS011;35952;52.524;13.340;2022-09-21T17:38:20;3.43;;;3.13;;
50066;SDS011;35952;52.524;13.340;2022-09-21T17:40:45;3.47;;;2.90;;
50066;SDS011;35952;52.524;13.340;2022-09-21T17:46:05;3.43;;;3.13;;
50066;SDS011;35952;52.524;13.340;2022-09-21T17:48:36;3.70;;;3.30;;
50066;SDS011;35952;52.524;13.340;2022-09-21T17:51:03;4.90;;;4.20;;